Time;durP1;ratioP1;P1;durP2;ratioP2;P2;SDS_P1;SDS_P2;PMS_P1;PMS_P2;Temp;Humidity;BMP_temperature;BMP_pressure;BME280_temperature;BME280_humidity;BME280_pressure;Samples;Min_cycle;Max_cycle;Signal;HPM_P1;HPM_P2
2023/10/16 00:02:22;;;;;;;1.25;0.95;;;;;;;8.56;54.99;92705.50;6271740;22;20019;-76
2023/10/16 00:04:49;;;;;;;1.58;0.90;;;;;;;8.54;54.26;92716.19;6270501;22;20012;-76
2023/10/16 00:07:21;;;;;;;1.25;0.90;;;;;;;8.51;54.41;92721.94;6270399;22;20011;-76
2023/10/16 00:09:49;;;;;;;1.50;0.90;;;;;;;8.54;54.63;92713.56;6272389;22;20008;-76
2023/10/16 00:12:19;;;;;;;2.25;1.00;;;;;;;8.44;55.27;92718.81;6271217;22;20010;-76
2023/10/16 00:14:47;;;;;;;1.70;0.80;;;;;;;8.42;55.71;92727.97;6271686;22;20326;-76
2023/10/16 00:17:15;;;;;;;1.50;1.08;;;;;;;8.36;56.41;92721.19;6271197;22;20007;-76
2023/10/16 00:19:46;;;;;;;1.42;1.00;;;;;;;8.39;56.63;92728.47;6270497;22;20014;-76
2023/10/16 00:22:18;;;;;;;1.60;1.10;;;;;;;8.37;56.47;92731.34;6271656;22;20020;-76
2023/10/16 00:24:47;;;;;;;1.13;0.80;;;;;;;8.38;55.96;92739.97;6270031;22;20015;-76
2023/10/16 00:27:17;;;;;;;1.33;0.90;;;;;;;8.37;56.32;92741.78;6271627;22;20004;-76
2023/10/16 00:29:43;;;;;;;2.10;0.77;;;;;;;8.38;57.52;92745.97;6271952;22;20012;-76
2023/10/16 00:32:09;;;;;;;2.20;1.05;;;;;;;8.36;57.99;92742.84;6270989;22;20025;-76
2023/10/16 00:34:35;;;;;;;1.67;1.00;;;;;;;8.38;56.87;92739.97;6269541;22;20102;-76
2023/10/16 00:37:07;;;;;;;1.67;1.10;;;;;;;8.34;58.41;92747.53;6270821;22;20057;-76
2023/10/16 00:39:35;;;;;;;0.93;0.90;;;;;;;8.35;57.71;92743.88;6271465;22;20018;-76
2023/10/16 00:42:01;;;;;;;1.75;0.98;;;;;;;8.25;57.96;92725.66;6270784;22;20069;-76
2023/10/16 00:44:33;;;;;;;1.65;1.00;;;;;;;8.32;57.66;92736.56;6270311;22;20007;-76
2023/10/16 00:47:09;;;;;;;2.17;1.00;;;;;;;8.33;57.31;92740.72;6269783;22;20027;-76
2023/10/16 00:49:35;;;;;;;2.83;0.93;;;;;;;8.32;56.99;92736.56;6269812;22;20465;-76
2023/10/16 00:52:03;;;;;;;1.35;0.98;;;;;;;8.34;57.02;92740.47;6271528;22;19996;-76
2023/10/16 00:54:33;;;;;;;2.63;0.95;;;;;;;8.34;57.68;92739.72;6269702;22;20015;-76
2023/10/16 00:57:00;;;;;;;1.83;1.13;;;;;;;8.30;59.01;92744.66;6268486;22;20396;-76
2023/10/16 00:59:27;;;;;;;1.40;0.85;;;;;;;8.28;60.05;92738.91;6271053;22;20035;-76
2023/10/16 01:04:37;;;;;;;1.38;1.00;;;;;;;8.22;59.66;92736.59;6269548;22;20409;-76
2023/10/16 01:07:05;;;;;;;1.98;1.17;;;;;;;8.21;60.53;92745.47;6268752;22;20092;-76
2023/10/16 01:09:35;;;;;;;2.63;1.10;;;;;;;8.18;60.58;92736.34;6271151;22;20022;-75
2023/10/16 01:12:10;;;;;;;1.52;1.00;;;;;;;8.17;60.69;92741.81;6269998;22;20034;-76
2023/10/16 01:14:37;;;;;;;1.88;0.93;;;;;;;8.12;60.75;92740.78;6269517;22;20034;-76
2023/10/16 01:17:08;;;;;;;1.23;0.90;;;;;;;8.12;61.65;92746.00;6268761;22;20003;-76
2023/10/16 01:19:36;;;;;;;2.25;1.10;;;;;;;8.07;61.83;92743.41;6270961;22;20079;-76
2023/10/16 01:22:02;;;;;;;1.85;0.85;;;;;;;8.04;61.55;92741.34;6268954;22;20023;-76
2023/10/16 01:24:29;;;;;;;1.70;1.10;;;;;;;8.01;61.53;92741.84;6271071;22;20015;-76
2023/10/16 01:27:06;;;;;;;2.05;1.15;;;;;;;8.01;61.86;92747.06;6270224;22;20015;-76
2023/10/16 01:29:33;;;;;;;2.17;1.15;;;;;;;7.96;62.57;92744.47;6270987;22;20023;-76
2023/10/16 01:31:59;;;;;;;2.10;1.00;;;;;;;7.93;64.76;92755.44;6271375;22;20004;-76
2023/10/16 01:34:25;;;;;;;1.73;1.10;;;;;;;7.84;66.07;92752.56;6271380;22;20011;-76
2023/10/16 01:36:51;;;;;;;3.85;1.20;;;;;;;7.83;65.71;92750.22;6268488;22;20000;-76
2023/10/16 01:42:03;;;;;;;1.42;0.90;;;;;;;7.78;64.52;92755.44;6271033;22;20468;-76
2023/10/16 01:44:29;;;;;;;1.98;1.20;;;;;;;7.76;64.35;92755.69;6270639;22;20034;-76
2023/10/16 01:46:55;;;;;;;1.48;0.95;;;;;;;7.76;64.60;92757.53;6269990;22;20023;-76
2023/10/16 01:49:24;;;;;;;2.70;1.20;;;;;;;7.77;65.39;92759.06;6271340;22;20201;-76
2023/10/16 01:51:53;;;;;;;2.10;1.02;;;;;;;7.75;65.62;92761.97;6271510;22;20019;-76
2023/10/16 01:54:22;;;;;;;2.38;1.00;;;;;;;7.72;66.17;92759.88;6272693;22;20314;-76
2023/10/16 01:56:49;;;;;;;2.17;1.20;;;;;;;7.69;65.76;92755.97;6271940;22;20106;-76
2023/10/16 01:59:16;;;;;;;2.45;1.10;;;;;;;7.68;66.51;92759.63;6271358;22;20004;-76
2023/10/16 02:01:42;;;;;;;2.50;0.98;;;;;;;7.64;67.72;92758.56;6270720;22;20018;-76
2023/10/16 02:04:07;;;;;;;1.75;1.10;;;;;;;7.62;67.56;92759.88;6271221;22;20008;-76
2023/10/16 02:06:33;;;;;;;1.83;1.00;;;;;;;7.62;67.06;92760.66;6272584;22;20068;-76
2023/10/16 02:08:59;;;;;;;2.25;1.15;;;;;;;7.59;66.31;92755.97;6272547;22;20312;-76
2023/10/16 02:11:26;;;;;;;2.15;1.00;;;;;;;7.57;66.77;92757.28;6273161;22;20016;-76
2023/10/16 02:13:51;;;;;;;1.05;0.82;;;;;;;7.59;66.35;92758.59;6269787;22;19999;-76
2023/10/16 02:16:18;;;;;;;3.28;1.20;;;;;;;7.59;68.05;92755.97;6272746;22;20480;-76
2023/10/16 02:18:46;;;;;;;1.95;1.05;;;;;;;7.59;68.10;92740.34;6273636;22;20034;-76
2023/10/16 02:21:13;;;;;;;1.63;1.15;;;;;;;7.59;69.10;92748.16;6273020;22;20015;-76
2023/10/16 02:23:47;;;;;;;2.55;1.05;;;;;;;7.64;69.51;92745.53;6270223;22;20445;-76
2023/10/16 02:26:18;;;;;;;;;;;;;;;7.64;69.92;92742.16;6271396;22;20090;-76
2023/10/16 02:28:46;;;;;;;1.63;1.10;;;;;;;7.61;69.78;92748.69;6271106;22;19922;-76
2023/10/16 02:31:15;;;;;;;1.65;1.10;;;;;;;7.59;69.39;92755.16;6271116;22;20004;-76
2023/10/16 02:33:50;;;;;;;1.52;0.90;;;;;;;7.55;71.92;92754.16;6271039;22;20012;-76
2023/10/16 02:36:21;;;;;;;2.72;1.00;;;;;;;7.55;73.55;92754.16;6272448;22;20444;-76
2023/10/16 02:38:47;;;;;;;1.67;1.00;;;;;;;7.54;74.77;92755.94;6270329;22;20035;-76
2023/10/16 02:41:19;;;;;;;2.08;1.10;;;;;;;7.55;73.97;92754.94;6272772;22;20033;-76
2023/10/16 02:43:48;;;;;;;1.10;0.93;;;;;;;7.55;73.20;92765.34;6271917;22;20098;-76
2023/10/16 02:46:18;;;;;;;2.00;1.02;;;;;;;7.53;74.28;92770.03;6272556;22;20022;-76
2023/10/16 02:48:44;;;;;;;1.35;0.90;;;;;;;7.54;75.78;92763.78;6269819;22;20016;-76
2023/10/16 02:51:14;;;;;;;1.70;0.98;;;;;;;7.56;75.54;92779.16;6272506;22;20026;-76
2023/10/16 02:53:41;;;;;;;2.30;1.10;;;;;;;7.47;75.90;92771.84;6272871;22;20489;-76
2023/10/16 02:56:14;;;;;;;1.10;0.95;;;;;;;7.55;77.56;92786.19;6273520;22;20027;-76
2023/10/16 02:58:46;;;;;;;2.00;1.00;;;;;;;7.52;77.13;92786.72;6271285;22;20037;-76
2023/10/16 03:01:14;;;;;;;1.80;1.17;;;;;;;7.55;76.35;92785.41;6270655;22;20015;-76
2023/10/16 03:03:43;;;;;;;5.40;1.10;;;;;;;7.58;75.14;92784.88;6272211;22;20010;-76
2023/10/16 03:06:10;;;;;;;1.15;0.95;;;;;;;7.62;75.20;92791.16;6271201;22;20042;-76
2023/10/16 03:08:37;;;;;;;1.70;1.10;;;;;;;7.63;76.12;92793.50;6270516;22;20004;-76
2023/10/16 03:11:06;;;;;;;3.42;1.30;;;;;;;7.67;76.33;92799.72;6270177;22;20095;-76
2023/10/16 03:13:37;;;;;;;1.10;0.90;;;;;;;7.69;76.83;92789.84;6270492;22;20437;-76
2023/10/16 03:16:16;;;;;;;2.05;1.10;;;;;;;7.72;80.20;92804.97;6243039;22;20371;-76
2023/10/16 03:18:43;;;;;;;1.40;0.98;;;;;;;7.76;78.75;92799.22;6271869;22;20007;-76
2023/10/16 03:23:42;;;;;;;2.30;1.08;;;;;;;7.82;82.78;92801.56;6274076;22;20015;-77
2023/10/16 03:26:09;;;;;;;1.73;1.20;;;;;;;7.85;84.83;92801.03;6273326;22;20476;-76
2023/10/16 03:28:35;;;;;;;2.28;1.17;;;;;;;7.91;85.83;92807.06;6273407;22;20011;-76
2023/10/16 03:31:03;;;;;;;3.05;1.10;;;;;;;7.94;89.95;92811.72;6271063;22;20016;-76
2023/10/16 03:33:30;;;;;;;1.58;1.00;;;;;;;7.98;90.72;92814.59;6270879;22;19999;-76
2023/10/16 03:35:57;;;;;;;5.55;1.17;;;;;;;7.98;92.28;92810.16;6269676;22;20031;-76
2023/10/16 03:38:27;;;;;;;1.50;1.10;;;;;;;8.01;92.52;92809.63;6270616;22;20388;-76
2023/10/16 03:40:53;;;;;;;1.88;1.13;;;;;;;8.03;92.51;92806.78;6272181;22;20091;-76
2023/10/16 03:43:22;;;;;;;3.08;1.17;;;;;;;8.04;94.81;92810.97;6270733;22;20057;-76
2023/10/16 03:45:49;;;;;;;1.42;1.10;;;;;;;8.05;93.37;92808.06;6271556;22;20016;-77
2023/10/16 03:48:17;;;;;;;1.10;0.90;;;;;;;8.09;93.39;92816.94;6272112;22;20087;-76
2023/10/16 03:50:43;;;;;;;1.52;1.00;;;;;;;8.10;91.99;92810.66;6272353;22;20012;-76
2023/10/16 03:53:13;;;;;;;1.52;1.08;;;;;;;8.16;93.06;92818.50;6270943;22;20004;-76
2023/10/16 03:55:49;;;;;;;1.17;1.00;;;;;;;8.20;91.75;92816.94;6271626;22;20494;-76
2023/10/16 03:58:16;;;;;;;1.40;1.00;;;;;;;8.22;92.33;92815.63;6271460;22;20022;-76
2023/10/16 04:03:18;;;;;;;6.03;1.10;;;;;;;8.28;88.92;92819.00;6271493;22;20503;-76
2023/10/16 04:05:47;;;;;;;1.77;1.10;;;;;;;8.29;88.78;92817.97;6271697;22;20000;-76
2023/10/16 04:08:14;;;;;;;0.90;0.70;;;;;;;8.30;87.97;92814.31;6271732;22;20019;-76
2023/10/16 04:10:46;;;;;;;3.70;1.35;;;;;;;8.29;87.43;92818.75;6270499;22;19999;-76
2023/10/16 04:13:16;;;;;;;1.98;1.10;;;;;;;8.34;87.11;92823.19;6272133;22;20012;-76
2023/10/16 04:18:28;;;;;;;1.23;1.10;;;;;;;8.37;88.02;92820.03;6271482;22;20014;-76
2023/10/16 04:31:55;;;;;;;2.33;1.10;;;;;;;8.59;79.03;92824.97;6269257;22;20090;-76
2023/10/16 04:47:42;;;;;;;2.53;1.15;;;;;;;8.63;79.94;92825.25;6270267;22;20011;-77
2023/10/16 04:50:11;;;;;;;2.55;1.10;;;;;;;8.63;79.42;92825.25;6267522;22;20023;-78
2023/10/16 04:53:22;;;;;;;3.47;1.00;;;;;;;8.62;81.84;92826.28;6270014;22;20022;-77
2023/10/16 04:58:28;;;;;;;;;;;;;;;8.58;87.05;92827.84;6270961;22;20445;-78
2023/10/16 05:01:17;;;;;;;2.17;1.08;;;;;;;8.58;89.47;92822.63;6269427;22;20340;-77
2023/10/16 05:14:22;;;;;;;3.53;1.38;;;;;;;8.59;93.15;92821.59;6269023;22;20288;-76
2023/10/16 05:22:03;;;;;;;1.75;1.10;;;;;;;8.55;95.60;92824.72;6269129;22;20026;-77
2023/10/16 06:14:16;;;;;;;4.15;1.15;;;;;;;8.72;100.00;92862.78;6275312;22;20035;-78
2023/10/16 06:16:47;;;;;;;3.67;1.13;;;;;;;8.74;100.00;92858.88;6276379;22;20016;-78
2023/10/16 06:19:15;;;;;;;2.88;1.23;;;;;;;8.74;100.00;92860.72;6268032;22;20292;-79
2023/10/16 06:21:48;;;;;;;3.08;1.30;;;;;;;8.76;100.00;92861.22;6273490;22;20298;-79
2023/10/16 06:24:33;;;;;;;3.70;1.13;;;;;;;8.78;100.00;92869.56;6275840;22;20016;-79
2023/10/16 06:27:00;;;;;;;1.52;1.10;;;;;;;8.82;96.78;92870.59;6276109;22;20050;-78
2023/10/16 06:29:34;;;;;;;1.70;1.08;;;;;;;8.85;91.06;92874.50;6272398;22;20053;-77
2023/10/16 06:32:07;;;;;;;1.55;1.15;;;;;;;8.89;89.72;92871.09;6275946;22;20012;-78
2023/10/16 06:34:36;;;;;;;3.20;0.90;;;;;;;8.95;88.40;92870.03;6274908;22;20015;-78
2023/10/16 06:37:09;;;;;;;7.28;1.10;;;;;;;9.01;90.53;92870.81;6274497;22;20403;-77
2023/10/16 06:39:35;;;;;;;1.00;0.98;;;;;;;9.03;90.34;92866.09;6274234;22;20094;-77
2023/10/16 06:42:04;;;;;;;4.38;0.95;;;;;;;9.09;90.71;92877.28;6274699;22;20023;-77
2023/10/16 06:44:36;;;;;;;4.00;1.13;;;;;;;9.14;91.16;92877.28;6273291;22;20018;-77
2023/10/16 06:47:02;;;;;;;1.52;0.93;;;;;;;9.21;92.52;92871.75;6272625;22;20011;-78
2023/10/16 06:49:36;;;;;;;1.63;1.20;;;;;;;9.25;94.28;92873.56;6274237;22;20038;-77
2023/10/16 06:52:06;;;;;;;3.70;1.20;;;;;;;9.33;94.04;92874.84;6273819;22;20030;-77
2023/10/16 06:54:37;;;;;;;3.53;1.08;;;;;;;9.40;94.80;92874.56;6275126;22;20012;-77
2023/10/16 06:57:12;;;;;;;2.10;1.13;;;;;;;9.46;94.97;92876.13;6275753;22;20008;-78
2023/10/16 06:59:44;;;;;;;1.20;0.95;;;;;;;9.51;93.90;92881.31;6246534;22;20035;-77
2023/10/16 07:02:21;;;;;;;1.75;1.05;;;;;;;9.57;93.73;92881.00;6274750;22;20012;-80
2023/10/16 07:04:47;;;;;;;1.75;1.08;;;;;;;9.61;92.72;92885.69;6274190;22;20088;-78
2023/10/16 07:07:18;;;;;;;1.17;0.90;;;;;;;9.75;89.39;92884.06;6274843;22;20006;-78
2023/10/16 07:09:48;;;;;;;2.47;1.20;;;;;;;9.84;88.31;92895.50;6274444;22;20024;-78
2023/10/16 07:12:16;;;;;;;1.17;1.00;;;;;;;9.88;86.59;92898.34;6275049;22;20023;-79
2023/10/16 07:15:01;;;;;;;2.58;1.05;;;;;;;9.83;87.40;92890.53;6272320;22;20031;-78
2023/10/16 07:17:30;;;;;;;1.75;1.05;;;;;;;9.83;89.40;92895.78;6272173;22;20023;-78
2023/10/16 07:19:59;;;;;;;3.42;1.13;;;;;;;9.86;89.61;92898.63;6272864;22;20067;-78
2023/10/16 07:22:31;;;;;;;2.70;1.20;;;;;;;9.95;90.00;92896.19;6273043;22;20019;-78
2023/10/16 07:27:47;;;;;;;2.35;1.17;;;;;;;9.89;90.14;92907.78;6274106;22;20679;-78
2023/10/16 07:30:22;;;;;;;1.27;0.95;;;;;;;9.89;93.72;92900.69;6273458;22;20008;-78
2023/10/16 07:32:51;;;;;;;1.02;0.90;;;;;;;10.04;91.75;92909.50;6274989;22;20100;-79
2023/10/16 07:35:23;;;;;;;1.17;1.00;;;;;;;10.05;93.13;92903.22;6274560;22;20016;-79
2023/10/16 07:37:49;;;;;;;1.10;1.00;;;;;;;10.09;93.05;92902.41;6274393;22;20016;-79
2023/10/16 07:40:15;;;;;;;1.55;1.05;;;;;;;10.18;94.02;92906.00;6274909;22;20119;-79
2023/10/16 07:42:41;;;;;;;2.65;1.10;;;;;;;10.18;95.37;92900.75;6274438;22;20016;-79
2023/10/16 07:45:08;;;;;;;4.68;1.00;;;;;;;10.30;94.53;92902.28;6274565;22;20050;-78
2023/10/16 07:47:33;;;;;;;2.45;1.00;;;;;;;10.39;94.40;92898.78;6274037;22;20015;-78
2023/10/16 07:50:00;;;;;;;2.03;1.52;;;;;;;10.44;93.92;92900.59;6274460;22;20012;-78
2023/10/16 07:52:28;;;;;;;3.00;1.25;;;;;;;10.47;93.08;92901.88;6274970;22;20094;-79
2023/10/16 07:54:54;;;;;;;1.52;1.10;;;;;;;10.43;92.97;92908.72;6248338;22;20057;-79
2023/10/16 07:57:21;;;;;;;2.33;1.08;;;;;;;10.45;89.96;92902.16;6275179;22;20468;-78
2023/10/16 07:59:47;;;;;;;1.92;1.10;;;;;;;10.44;92.02;92903.19;6274894;22;20038;-78
2023/10/16 08:02:19;;;;;;;2.78;1.27;;;;;;;10.43;94.26;92906.13;6274889;22;20483;-78
2023/10/16 08:04:45;;;;;;;1.85;1.15;;;;;;;10.46;95.71;92903.72;6274737;22;20015;-78
2023/10/16 08:07:20;;;;;;;1.83;1.27;;;;;;;10.66;93.58;92904.59;6273974;22;20075;-78
2023/10/16 08:09:57;;;;;;;3.22;1.10;;;;;;;10.64;91.27;92902.25;6272681;22;20109;-77
2023/10/16 08:12:35;;;;;;;1.92;1.20;;;;;;;10.48;85.57;92904.22;6273111;22;20098;-77
2023/10/16 08:15:09;;;;;;;1.40;1.15;;;;;;;10.44;85.86;92908.44;6274127;22;20035;-78
2023/10/16 08:17:37;;;;;;;1.48;1.00;;;;;;;10.45;89.96;92906.59;6274286;22;20057;-78
2023/10/16 08:20:08;;;;;;;2.70;1.10;;;;;;;10.57;90.00;92902.56;6274535;22;20011;-78
2023/10/16 08:22:33;;;;;;;1.83;1.05;;;;;;;10.81;87.68;92907.09;6274388;22;20102;-78
2023/10/16 08:24:59;;;;;;;2.10;1.20;;;;;;;10.75;89.95;92905.56;6273765;22;20437;-77
2023/10/16 08:33:06;;;;;;;2.47;1.20;;;;;;;10.75;89.12;92908.19;6274054;22;20007;-77
2023/10/16 08:35:38;;;;;;;3.00;1.13;;;;;;;10.77;89.64;92911.31;6273678;22;20041;-78
2023/10/16 08:40:43;;;;;;;2.50;1.38;;;;;;;10.57;95.91;92918.28;6273661;22;19914;-78
2023/10/16 08:43:10;;;;;;;2.65;1.25;;;;;;;10.60;96.81;92917.75;6274957;22;20499;-78
2023/10/16 08:45:48;;;;;;;2.13;1.08;;;;;;;10.79;91.54;92914.44;6271505;22;20022;-77
2023/10/16 08:48:21;;;;;;;3.33;1.20;;;;;;;10.75;93.04;92908.19;6274134;22;20476;-77
2023/10/16 08:50:58;;;;;;;1.73;1.10;;;;;;;10.79;93.28;92914.44;6273617;22;20111;-77
2023/10/16 08:53:33;;;;;;;1.83;1.10;;;;;;;10.90;91.36;92915.91;6272568;22;20034;-77
2023/10/16 08:55:59;;;;;;;2.58;1.15;;;;;;;11.03;90.40;92910.00;6274126;22;20011;-78
2023/10/16 08:58:26;;;;;;;2.70;1.15;;;;;;;11.10;89.89;92914.13;6272988;22;20425;-78
2023/10/16 09:00:54;;;;;;;1.83;1.15;;;;;;;11.14;88.81;92900.19;6273690;22;20031;-78
2023/10/16 09:03:20;;;;;;;1.50;1.00;;;;;;;11.27;86.77;92903.97;6272167;22;20054;-78
2023/10/16 09:05:46;;;;;;;1.73;1.00;;;;;;;11.30;88.05;92902.63;6274453;22;20015;-78
2023/10/16 09:08:14;;;;;;;1.88;1.10;;;;;;;11.36;86.85;92907.53;6274368;22;20459;-78
2023/10/16 09:10:44;;;;;;;1.33;1.00;;;;;;;11.38;88.77;92910.66;6274615;22;20046;-77
2023/10/16 09:13:17;;;;;;;1.10;1.00;;;;;;;11.62;83.94;92904.63;6274209;22;20008;-78
2023/10/16 09:15:45;;;;;;;2.85;1.20;;;;;;;11.65;85.74;92909.28;6273625;22;20038;-78
2023/10/16 09:18:14;;;;;;;1.98;1.35;;;;;;;11.70;85.01;92903.97;6274071;22;20279;-78
2023/10/16 09:20:43;;;;;;;1.83;1.20;;;;;;;11.64;82.90;92905.91;6273785;22;20054;-78
2023/10/16 09:23:15;;;;;;;1.23;0.98;;;;;;;11.38;83.21;92908.03;6274352;22;20019;-78
2023/10/16 09:25:45;;;;;;;4.07;1.33;;;;;;;11.50;82.63;92899.75;6273397;22;20019;-79
2023/10/16 09:28:16;;;;;;;3.47;1.30;;;;;;;11.45;83.52;92911.09;6272508;22;20250;-78
2023/10/16 09:30:45;;;;;;;3.08;1.25;;;;;;;11.51;80.83;92908.44;6273705;22;20022;-78
2023/10/16 09:33:10;;;;;;;2.78;1.30;;;;;;;11.57;78.89;92899.41;6274245;22;20063;-78
2023/10/16 09:35:45;;;;;;;2.83;1.20;;;;;;;11.79;81.03;92904.91;6246696;22;20098;-78
2023/10/16 09:38:23;;;;;;;3.25;1.10;;;;;;;11.92;79.15;92898.22;6273725;22;20008;-78
2023/10/16 09:40:58;;;;;;;5.05;2.35;;;;;;;12.14;82.19;92894.25;6273995;22;20643;-79
2023/10/16 09:43:27;;;;;;;4.13;1.40;;;;;;;12.26;75.71;92899.81;6274432;22;20090;-79
2023/10/16 09:48:39;;;;;;;4.35;1.25;;;;;;;11.76;78.86;92908.09;6275422;22;20014;-79
2023/10/16 09:51:09;;;;;;;2.15;1.23;;;;;;;11.84;77.04;92893.56;6273261;22;20039;-78
2023/10/16 09:53:35;;;;;;;2.15;1.20;;;;;;;12.14;80.79;92895.03;6274256;22;20027;-79
2023/10/16 09:56:04;;;;;;;2.28;1.20;;;;;;;11.89;75.89;92898.78;6273853;22;20007;-78
2023/10/16 09:58:34;;;;;;;1.70;1.20;;;;;;;11.99;77.00;92903.09;6273772;22;20452;-78
2023/10/16 10:01:16;;;;;;;3.85;1.40;;;;;;;12.21;74.79;92900.69;6271224;22;20007;-78
2023/10/16 10:03:42;;;;;;;2.42;1.10;;;;;;;12.53;72.44;92901.75;6274252;22;20014;-77
2023/10/16 10:06:08;;;;;;;2.30;1.23;;;;;;;12.34;73.64;92899.19;6272597;22;20007;-78
2023/10/16 10:11:38;;;;;;;3.92;1.27;;;;;;;12.27;74.30;92901.38;6274020;22;20432;-78
2023/10/16 10:14:38;;;;;;;4.13;1.23;;;;;;;12.49;73.87;92898.16;6274897;22;20011;-78
2023/10/16 10:17:09;;;;;;;1.70;1.15;;;;;;;12.56;69.51;92906.44;6275832;22;20011;-78
2023/10/16 10:19:40;;;;;;;2.42;1.08;;;;;;;12.69;73.89;92900.44;6276354;22;20018;-78
2023/10/16 10:22:26;;;;;;;1.83;1.20;;;;;;;12.70;71.12;92895.97;6274895;22;20016;-78
2023/10/16 10:25:25;;;;;;;2.78;1.20;;;;;;;12.59;70.77;92889.34;6276337;22;20567;-78
2023/10/16 10:27:54;;;;;;;1.45;1.10;;;;;;;12.86;70.98;92893.88;6276284;22;20043;-78
2023/10/16 10:30:26;;;;;;;1.70;1.08;;;;;;;12.97;70.10;92884.75;6274378;22;20452;-78
2023/10/16 10:32:53;;;;;;;3.60;1.20;;;;;;;12.81;71.45;92891.31;6275862;22;20016;-78
2023/10/16 10:35:26;;;;;;;1.88;1.25;;;;;;;12.87;72.00;92887.53;6278433;22;20012;-78
2023/10/16 10:38:07;;;;;;;4.00;1.20;;;;;;;13.08;70.82;92880.06;6275943;22;20348;-78
2023/10/16 10:40:35;;;;;;;3.38;1.20;;;;;;;12.79;72.66;92882.94;6276790;22;20400;-78
2023/10/16 10:43:04;;;;;;;1.80;1.20;;;;;;;12.90;71.21;92884.31;6274545;22;20016;-78
2023/10/16 10:45:34;;;;;;;1.80;1.10;;;;;;;12.94;71.50;92874.00;6274960;22;20015;-78
2023/10/16 10:48:09;;;;;;;5.38;1.10;;;;;;;13.10;69.51;92876.09;6275640;22;20015;-78
2023/10/16 10:50:40;;;;;;;1.77;1.10;;;;;;;12.97;68.75;92868.97;6273212;22;20012;-78
2023/10/16 10:53:15;;;;;;;1.85;1.00;;;;;;;12.81;69.39;92865.03;6276083;22;20016;-77
2023/10/16 10:55:55;;;;;;;2.00;1.10;;;;;;;12.71;72.22;92863.38;6275560;22;20018;-76
2023/10/16 10:58:23;;;;;;;2.58;1.27;;;;;;;13.00;70.57;92868.38;6274012;22;20015;-76
2023/10/16 11:00:50;;;;;;;1.65;1.17;;;;;;;13.11;70.64;92858.47;6275857;22;20314;-79
2023/10/16 11:06:22;;;;;;;2.08;1.17;;;;;;;13.31;70.70;92854.69;6248385;22;20019;-78
2023/10/16 11:08:53;;;;;;;2.17;1.08;;;;;;;13.28;73.10;92852.63;6278751;22;20046;-78
2023/10/16 11:11:18;;;;;;;2.00;1.08;;;;;;;13.33;67.01;92849.91;6271293;22;20015;-76
2023/10/16 11:13:48;;;;;;;1.75;1.00;;;;;;;13.28;69.07;92839.47;6273913;22;20022;-77
2023/10/16 11:16:15;;;;;;;0.88;0.88;;;;;;;13.41;68.59;92841.31;6273272;22;20024;-77
2023/10/16 11:18:55;;;;;;;2.72;1.02;;;;;;;13.15;68.32;92837.63;6274058;22;19995;-77
2023/10/16 11:21:25;;;;;;;3.33;1.10;;;;;;;13.10;69.97;92830.59;6271982;22;20049;-77
2023/10/16 11:24:00;;;;;;;4.97;1.20;;;;;;;13.40;70.95;92828.50;6274901;22;20042;-77
2023/10/16 11:26:29;;;;;;;1.55;1.00;;;;;;;13.63;69.46;92826.69;6273805;22;20130;-77
2023/10/16 11:28:55;;;;;;;2.75;1.05;;;;;;;13.49;68.57;92821.47;6274230;22;20472;-77
2023/10/16 11:31:21;;;;;;;1.67;0.90;;;;;;;13.74;70.06;92820.91;6246755;22;20011;-77
2023/10/16 11:34:01;;;;;;;2.15;1.30;;;;;;;14.00;68.67;92816.91;6273652;22;20018;-77
2023/10/16 11:36:31;;;;;;;1.52;1.08;;;;;;;14.33;67.92;92812.94;6272390;22;20087;-77
2023/10/16 11:39:02;;;;;;;3.67;1.00;;;;;;;14.36;65.16;92806.31;6272880;22;20398;-77
2023/10/16 11:41:30;;;;;;;2.28;1.08;;;;;;;14.25;64.42;92805.81;6273394;22;20007;-77
2023/10/16 11:43:56;;;;;;;2.33;0.93;;;;;;;14.23;65.57;92813.22;6273617;22;20004;-76
2023/10/16 11:46:29;;;;;;;3.40;1.25;;;;;;;14.08;64.17;92803.03;6273415;22;20180;-77
2023/10/16 11:51:48;;;;;;;3.92;1.30;;;;;;;14.21;68.29;92799.56;6272987;22;20007;-77
2023/10/16 11:54:23;;;;;;;1.95;1.10;;;;;;;14.07;68.03;92798.84;6273476;22;19999;-76
2023/10/16 11:56:53;;;;;;;2.13;1.20;;;;;;;13.84;66.16;92795.44;6270645;22;20012;-77
2023/10/16 11:59:21;;;;;;;1.98;1.15;;;;;;;13.49;66.64;92797.78;6275268;22;20015;-77
2023/10/16 12:01:50;;;;;;;1.80;1.10;;;;;;;13.11;67.91;92795.38;6275439;22;20008;-76
2023/10/16 12:04:17;;;;;;;1.92;1.17;;;;;;;12.71;69.03;92785.34;6272529;22;20523;-77
2023/10/16 12:06:47;;;;;;;2.78;1.30;;;;;;;12.74;71.10;92791.09;6272891;22;20445;-76
2023/10/16 12:09:13;;;;;;;1.77;1.08;;;;;;;12.76;69.95;92779.22;6272756;22;20045;-77
2023/10/16 12:11:43;;;;;;;2.38;1.15;;;;;;;12.91;71.63;92781.56;6273383;22;20425;-77
2023/10/16 12:14:13;;;;;;;2.90;1.67;;;;;;;12.83;69.42;92778.84;6272345;22;20039;-76
2023/10/16 12:16:45;;;;;;;2.55;1.23;;;;;;;12.78;70.46;92777.09;6272624;22;20019;-77
2023/10/16 12:19:17;;;;;;;2.17;1.10;;;;;;;12.79;72.05;92768.16;6272912;22;20086;-77
2023/10/16 12:21:44;;;;;;;1.88;1.00;;;;;;;12.94;72.69;92768.91;6271925;22;20329;-77
2023/10/16 12:24:12;;;;;;;1.88;1.10;;;;;;;13.04;73.53;92761.63;6274085;22;20472;-77
2023/10/16 12:26:42;;;;;;;2.78;1.25;;;;;;;13.10;71.95;92765.69;6274304;22;20072;-77
2023/10/16 12:29:08;;;;;;;1.83;1.20;;;;;;;13.24;71.76;92760.41;6274728;22;20012;-77
2023/10/16 12:31:40;;;;;;;1.73;1.10;;;;;;;13.35;70.54;92755.72;6272989;22;20019;-77
2023/10/16 12:34:10;;;;;;;2.63;1.20;;;;;;;13.41;69.40;92762.44;6276022;22;20392;-77
2023/10/16 12:36:43;;;;;;;1.95;1.05;;;;;;;13.05;70.95;92763.16;6275827;22;20324;-76
2023/10/16 12:39:25;;;;;;;1.27;0.98;;;;;;;13.16;70.84;92755.84;6273971;22;20015;-78
2023/10/16 12:41:55;;;;;;;3.55;1.30;;;;;;;13.25;71.33;92753.31;6275853;22;20011;-76
2023/10/16 12:44:23;;;;;;;2.10;1.20;;;;;;;13.37;71.24;92750.94;6275600;22;20015;-76
2023/10/16 12:46:53;;;;;;;2.63;1.27;;;;;;;13.45;70.58;92752.13;6274061;22;20027;-77
2023/10/16 12:49:20;;;;;;;1.80;1.20;;;;;;;13.58;69.41;92745.25;6275924;22;20026;-77
2023/10/16 12:51:48;;;;;;;1.70;1.00;;;;;;;13.74;68.22;92749.88;6275698;22;20085;-77
2023/10/16 12:54:15;;;;;;;2.25;1.25;;;;;;;13.70;67.63;92742.88;6247610;22;20108;-77
2023/10/16 12:56:43;;;;;;;1.67;1.10;;;;;;;13.70;66.61;92742.88;6273642;22;20042;-77
2023/10/16 12:59:10;;;;;;;2.22;1.10;;;;;;;13.80;67.67;92745.25;6273712;22;20388;-77
2023/10/16 13:01:37;;;;;;;4.80;1.40;;;;;;;13.86;67.46;92741.44;6274485;22;20086;-76
2023/10/16 13:04:06;;;;;;;2.30;1.13;;;;;;;14.02;65.86;92738.44;6274365;22;20007;-76
2023/10/16 13:06:32;;;;;;;1.55;1.00;;;;;;;14.15;65.81;92737.59;6273669;22;20015;-77
2023/10/16 13:09:00;;;;;;;2.35;1.27;;;;;;;14.28;65.21;92736.72;6274669;22;20015;-77
2023/10/16 13:11:27;;;;;;;2.20;1.20;;;;;;;14.49;63.31;92741.47;6275794;22;20069;-76
2023/10/16 13:13:55;;;;;;;1.60;1.02;;;;;;;14.09;62.31;92738.78;6275822;22;20055;-77
2023/10/16 13:16:25;;;;;;;4.20;1.30;;;;;;;14.03;64.88;92735.50;6276093;22;20445;-77
2023/10/16 13:18:57;;;;;;;1.20;0.90;;;;;;;13.69;66.41;92731.56;6276927;22;20015;-77
2023/10/16 13:21:33;;;;;;;3.05;1.20;;;;;;;13.68;66.47;92734.50;6277869;22;20023;-77
2023/10/16 13:24:05;;;;;;;2.25;1.10;;;;;;;13.98;66.33;92735.63;6275501;22;20007;-76
2023/10/16 13:26:36;;;;;;;3.22;1.23;;;;;;;14.11;66.24;92731.38;6274493;22;20012;-76
2023/10/16 13:29:07;;;;;;;2.35;1.50;;;;;;;14.31;63.63;92738.75;6271849;22;20034;-76
2023/10/16 13:31:40;;;;;;;1.45;1.05;;;;;;;14.25;63.58;92739.97;6270387;22;20007;-77
2023/10/16 13:34:13;;;;;;;1.88;1.20;;;;;;;14.41;60.92;92743.00;6271986;22;20097;-77
2023/10/16 13:36:56;;;;;;;1.95;1.40;;;;;;;14.47;62.73;92738.34;6270507;22;20019;-77
2023/10/16 13:39:26;;;;;;;2.03;1.13;;;;;;;14.50;63.78;92743.00;6269023;22;20035;-79
2023/10/16 13:41:52;;;;;;;2.08;1.20;;;;;;;14.13;63.58;92734.47;6268973;22;20011;-77
2023/10/16 13:44:19;;;;;;;2.55;1.30;;;;;;;13.64;64.35;92739.56;6270944;22;20384;-77
2023/10/16 13:46:52;;;;;;;2.60;1.30;;;;;;;13.63;66.20;92732.00;6271644;22;20473;-77
2023/10/16 13:49:19;;;;;;;2.13;1.20;;;;;;;13.73;67.54;92726.47;6273734;22;20486;-77
2023/10/16 13:51:45;;;;;;;1.92;1.08;;;;;;;13.89;67.54;92722.44;6273883;22;19999;-77
2023/10/16 13:54:12;;;;;;;4.53;1.40;;;;;;;14.14;61.48;92720.25;6274884;22;20414;-77
2023/10/16 13:56:41;;;;;;;2.42;1.20;;;;;;;13.62;61.87;92725.16;6278600;22;20008;-78
2023/10/16 13:59:07;;;;;;;3.05;1.45;;;;;;;13.17;68.63;92722.44;6277368;22;20019;-78